Middle Brook, Missouri
Current Conditions -  °F | °C
As of 3:55 PM on Monday 20 Oct 2014 (Local Time) from KFAM Reporting Station
Few Clouds Few Clouds  
Wind Chill: 73°   Ceiling: Unl
Heat Index: 73°   Visibility: 10mi
Dew Point: 48°   Wind: 12mph
Humidity: 41%   Direction: 280°W
Pressure: 29.96"   Gusts: NA
Location:  37.66°N, 90.65°W
Report Text: KFAM 202055Z AUTO 28010KT 10SM FEW070 23/09 A2996 RMK AO1 57014
Loading
Personal Weather Stations






























Interactive Weather Map New forecast layout! Learn more

10-Day Weather Forecast

Advertisements
Track Severe Weather on mobile